sensor_id;sensor_type;location;lat;lon;timestamp;P1;durP1;ratioP1;P2;durP2;ratioP2
69417;SDS011;56610;48.872;2.400;2023-02-26T00:01:47;4.53;;;2.05;;
69417;SDS011;56610;48.872;2.400;2023-02-26T00:04:13;7.03;;;2.30;;
69417;SDS011;56610;48.872;2.400;2023-02-26T00:06:39;5.10;;;2.42;;
69417;SDS011;56610;48.872;2.400;2023-02-26T00:09:16;7.15;;;2.47;;
69417;SDS011;56610;48.872;2.400;2023-02-26T00:11:42;4.90;;;2.50;;
69417;SDS011;56610;48.872;2.400;2023-02-26T00:14:13;8.35;;;2.50;;
69417;SDS011;56610;48.872;2.400;2023-02-26T00:16:40;7.75;;;2.40;;
69417;SDS011;56610;48.872;2.400;2023-02-26T00:19:07;6.05;;;1.98;;
69417;SDS011;56610;48.872;2.400;2023-02-26T00:21:36;6.03;;;2.45;;
69417;SDS011;56610;48.872;2.400;2023-02-26T00:24:01;6.55;;;2.47;;
69417;SDS011;56610;48.872;2.400;2023-02-26T00:26:28;5.25;;;2.03;;
69417;SDS011;56610;48.872;2.400;2023-02-26T00:28:55;6.57;;;2.35;;
69417;SDS011;56610;48.872;2.400;2023-02-26T00:31:21;7.28;;;2.38;;
69417;SDS011;56610;48.872;2.400;2023-02-26T00:33:51;6.28;;;2.30;;
69417;SDS011;56610;48.872;2.400;2023-02-26T00:38:55;6.10;;;2.47;;
69417;SDS011;56610;48.872;2.400;2023-02-26T00:41:33;6.45;;;2.40;;
69417;SDS011;56610;48.872;2.400;2023-02-26T00:44:00;6.10;;;2.58;;
69417;SDS011;56610;48.872;2.400;2023-02-26T00:46:35;7.68;;;2.40;;
69417;SDS011;56610;48.872;2.400;2023-02-26T00:49:15;7.43;;;2.58;;
69417;SDS011;56610;48.872;2.400;2023-02-26T00:51:50;6.53;;;2.43;;
69417;SDS011;56610;48.872;2.400;2023-02-26T00:54:21;8.20;;;2.70;;
69417;SDS011;56610;48.872;2.400;2023-02-26T00:56:49;8.95;;;2.42;;
69417;SDS011;56610;48.872;2.400;2023-02-26T00:59:19;5.43;;;2.17;;
69417;SDS011;56610;48.872;2.400;2023-02-26T01:01:45;6.38;;;2.38;;
69417;SDS011;56610;48.872;2.400;2023-02-26T01:04:11;7.68;;;2.58;;
69417;SDS011;56610;48.872;2.400;2023-02-26T01:06:43;9.23;;;2.60;;
69417;SDS011;56610;48.872;2.400;2023-02-26T01:11:51;6.28;;;2.25;;
69417;SDS011;56610;48.872;2.400;2023-02-26T01:14:18;7.07;;;2.10;;
69417;SDS011;56610;48.872;2.400;2023-02-26T01:16:59;5.75;;;2.15;;
69417;SDS011;56610;48.872;2.400;2023-02-26T01:25:07;6.10;;;2.80;;
69417;SDS011;56610;48.872;2.400;2023-02-26T01:27:34;7.50;;;2.40;;
69417;SDS011;56610;48.872;2.400;2023-02-26T01:30:00;7.00;;;2.63;;
69417;SDS011;56610;48.872;2.400;2023-02-26T01:35:01;7.57;;;2.55;;
69417;SDS011;56610;48.872;2.400;2023-02-26T01:37:34;6.05;;;2.25;;
69417;SDS011;56610;48.872;2.400;2023-02-26T01:42:53;6.40;;;2.60;;
69417;SDS011;56610;48.872;2.400;2023-02-26T01:45:29;6.35;;;2.75;;
69417;SDS011;56610;48.872;2.400;2023-02-26T01:48:06;4.28;;;2.42;;
69417;SDS011;56610;48.872;2.400;2023-02-26T01:50:45;4.85;;;2.67;;
69417;SDS011;56610;48.872;2.400;2023-02-26T01:53:22;4.68;;;2.22;;
69417;SDS011;56610;48.872;2.400;2023-02-26T01:56:12;6.10;;;2.30;;
69417;SDS011;56610;48.872;2.400;2023-02-26T01:58:39;5.63;;;2.95;;
69417;SDS011;56610;48.872;2.400;2023-02-26T02:01:05;4.28;;;2.30;;
69417;SDS011;56610;48.872;2.400;2023-02-26T02:03:33;8.40;;;2.95;;
69417;SDS011;56610;48.872;2.400;2023-02-26T02:06:05;5.47;;;2.33;;
69417;SDS011;56610;48.872;2.400;2023-02-26T02:08:35;5.30;;;2.22;;
69417;SDS011;56610;48.872;2.400;2023-02-26T02:11:02;4.53;;;2.78;;
69417;SDS011;56610;48.872;2.400;2023-02-26T02:19:14;4.82;;;2.60;;
69417;SDS011;56610;48.872;2.400;2023-02-26T02:24:57;4.07;;;1.70;;
69417;SDS011;56610;48.872;2.400;2023-02-26T02:33:33;4.03;;;2.00;;
69417;SDS011;56610;48.872;2.400;2023-02-26T02:39:08;3.40;;;1.80;;
69417;SDS011;56610;48.872;2.400;2023-02-26T02:41:48;5.75;;;2.28;;
69417;SDS011;56610;48.872;2.400;2023-02-26T02:44:38;5.53;;;2.50;;
69417;SDS011;56610;48.872;2.400;2023-02-26T02:47:08;4.80;;;1.92;;
69417;SDS011;56610;48.872;2.400;2023-02-26T02:49:37;5.10;;;1.98;;
69417;SDS011;56610;48.872;2.400;2023-02-26T02:52:16;4.40;;;2.03;;
69417;SDS011;56610;48.872;2.400;2023-02-26T02:54:53;6.00;;;1.92;;
69417;SDS011;56610;48.872;2.400;2023-02-26T02:57:32;4.82;;;1.83;;
69417;SDS011;56610;48.872;2.400;2023-02-26T03:00:12;4.75;;;2.10;;
69417;SDS011;56610;48.872;2.400;2023-02-26T03:02:48;4.47;;;2.20;;
69417;SDS011;56610;48.872;2.400;2023-02-26T03:05:35;5.13;;;2.00;;
69417;SDS011;56610;48.872;2.400;2023-02-26T03:08:02;5.55;;;2.05;;
69417;SDS011;56610;48.872;2.400;2023-02-26T03:10:31;5.00;;;2.10;;
69417;SDS011;56610;48.872;2.400;2023-02-26T03:12:57;4.28;;;2.00;;
69417;SDS011;56610;48.872;2.400;2023-02-26T03:17:58;6.72;;;2.30;;
69417;SDS011;56610;48.872;2.400;2023-02-26T03:20:31;4.55;;;1.92;;
69417;SDS011;56610;48.872;2.400;2023-02-26T03:25:57;5.95;;;2.20;;
69417;SDS011;56610;48.872;2.400;2023-02-26T03:28:40;4.50;;;1.80;;
69417;SDS011;56610;48.872;2.400;2023-02-26T03:36:31;6.05;;;2.17;;
69417;SDS011;56610;48.872;2.400;2023-02-26T03:39:03;6.45;;;2.35;;
69417;SDS011;56610;48.872;2.400;2023-02-26T03:41:38;6.15;;;2.00;;
69417;SDS011;56610;48.872;2.400;2023-02-26T03:44:34;5.65;;;2.13;;
69417;SDS011;56610;48.872;2.400;2023-02-26T03:47:10;5.00;;;1.98;;
69417;SDS011;56610;48.872;2.400;2023-02-26T03:49:55;7.07;;;2.00;;
69417;SDS011;56610;48.872;2.400;2023-02-26T03:52:25;4.63;;;1.75;;
69417;SDS011;56610;48.872;2.400;2023-02-26T03:55:00;4.72;;;2.00;;
69417;SDS011;56610;48.872;2.400;2023-02-26T03:57:31;5.13;;;1.98;;
69417;SDS011;56610;48.872;2.400;2023-02-26T03:59:57;6.28;;;2.20;;
69417;SDS011;56610;48.872;2.400;2023-02-26T04:02:27;5.05;;;2.35;;
69417;SDS011;56610;48.872;2.400;2023-02-26T04:05:07;6.15;;;1.92;;
69417;SDS011;56610;48.872;2.400;2023-02-26T04:07:36;8.10;;;2.13;;
69417;SDS011;56610;48.872;2.400;2023-02-26T04:10:05;7.13;;;2.20;;
69417;SDS011;56610;48.872;2.400;2023-02-26T04:12:33;6.93;;;2.10;;
69417;SDS011;56610;48.872;2.400;2023-02-26T04:14:58;5.88;;;2.00;;
69417;SDS011;56610;48.872;2.400;2023-02-26T04:17:24;5.30;;;1.85;;
69417;SDS011;56610;48.872;2.400;2023-02-26T04:19:50;5.07;;;1.80;;
69417;SDS011;56610;48.872;2.400;2023-02-26T04:22:15;5.13;;;2.50;;
69417;SDS011;56610;48.872;2.400;2023-02-26T04:24:41;4.60;;;1.95;;
69417;SDS011;56610;48.872;2.400;2023-02-26T04:27:07;5.05;;;1.92;;
69417;SDS011;56610;48.872;2.400;2023-02-26T04:29:33;4.20;;;1.88;;
69417;SDS011;56610;48.872;2.400;2023-02-26T04:31:59;5.85;;;2.08;;
69417;SDS011;56610;48.872;2.400;2023-02-26T04:34:25;5.97;;;1.98;;
69417;SDS011;56610;48.872;2.400;2023-02-26T04:36:51;5.07;;;1.75;;
69417;SDS011;56610;48.872;2.400;2023-02-26T04:39:17;6.47;;;2.30;;
69417;SDS011;56610;48.872;2.400;2023-02-26T04:41:43;4.00;;;1.58;;
69417;SDS011;56610;48.872;2.400;2023-02-26T04:44:09;3.78;;;2.00;;
69417;SDS011;56610;48.872;2.400;2023-02-26T04:46:34;6.82;;;2.40;;
69417;SDS011;56610;48.872;2.400;2023-02-26T04:49:00;5.13;;;1.92;;
69417;SDS011;56610;48.872;2.400;2023-02-26T04:51:26;7.25;;;2.20;;
69417;SDS011;56610;48.872;2.400;2023-02-26T04:53:52;6.50;;;2.03;;
69417;SDS011;56610;48.872;2.400;2023-02-26T04:56:17;5.30;;;2.20;;
69417;SDS011;56610;48.872;2.400;2023-02-26T04:58:43;5.40;;;2.30;;
69417;SDS011;56610;48.872;2.400;2023-02-26T05:01:09;4.75;;;1.98;;
69417;SDS011;56610;48.872;2.400;2023-02-26T05:03:34;4.97;;;2.45;;
69417;SDS011;56610;48.872;2.400;2023-02-26T05:06:00;4.93;;;2.45;;
69417;SDS011;56610;48.872;2.400;2023-02-26T05:08:26;8.07;;;2.50;;
69417;SDS011;56610;48.872;2.400;2023-02-26T05:10:51;5.60;;;2.03;;
69417;SDS011;56610;48.872;2.400;2023-02-26T05:13:18;8.02;;;2.63;;
69417;SDS011;56610;48.872;2.400;2023-02-26T05:15:44;5.97;;;2.55;;
69417;SDS011;56610;48.872;2.400;2023-02-26T05:18:09;4.95;;;2.25;;
69417;SDS011;56610;48.872;2.400;2023-02-26T05:20:35;5.68;;;2.38;;
69417;SDS011;56610;48.872;2.400;2023-02-26T05:23:01;5.50;;;2.28;;
69417;SDS011;56610;48.872;2.400;2023-02-26T05:25:27;6.50;;;2.50;;
69417;SDS011;56610;48.872;2.400;2023-02-26T05:27:54;5.50;;;2.50;;
69417;SDS011;56610;48.872;2.400;2023-02-26T05:30:20;6.47;;;2.47;;
69417;SDS011;56610;48.872;2.400;2023-02-26T05:32:46;5.32;;;2.20;;
69417;SDS011;56610;48.872;2.400;2023-02-26T05:35:12;6.90;;;2.38;;
69417;SDS011;56610;48.872;2.400;2023-02-26T05:37:38;6.03;;;2.20;;
69417;SDS011;56610;48.872;2.400;2023-02-26T05:40:05;7.13;;;2.63;;
69417;SDS011;56610;48.872;2.400;2023-02-26T05:42:35;6.15;;;2.47;;
69417;SDS011;56610;48.872;2.400;2023-02-26T05:45:02;5.32;;;2.58;;
69417;SDS011;56610;48.872;2.400;2023-02-26T05:47:30;6.65;;;2.33;;
69417;SDS011;56610;48.872;2.400;2023-02-26T05:49:56;6.15;;;2.17;;
69417;SDS011;56610;48.872;2.400;2023-02-26T05:52:22;5.53;;;2.13;;
69417;SDS011;56610;48.872;2.400;2023-02-26T05:54:47;5.38;;;2.40;;
69417;SDS011;56610;48.872;2.400;2023-02-26T05:57:14;6.28;;;2.50;;
69417;SDS011;56610;48.872;2.400;2023-02-26T05:59:42;5.20;;;2.00;;
69417;SDS011;56610;48.872;2.400;2023-02-26T06:04:33;5.63;;;2.15;;
69417;SDS011;56610;48.872;2.400;2023-02-26T06:06:59;6.38;;;2.78;;
69417;SDS011;56610;48.872;2.400;2023-02-26T06:09:24;5.97;;;2.33;;
69417;SDS011;56610;48.872;2.400;2023-02-26T06:11:50;5.93;;;3.03;;
69417;SDS011;56610;48.872;2.400;2023-02-26T06:14:16;8.40;;;3.13;;
69417;SDS011;56610;48.872;2.400;2023-02-26T06:16:41;7.22;;;2.80;;
69417;SDS011;56610;48.872;2.400;2023-02-26T06:19:07;8.23;;;3.28;;
69417;SDS011;56610;48.872;2.400;2023-02-26T06:21:33;7.32;;;2.97;;
69417;SDS011;56610;48.872;2.400;2023-02-26T06:23:58;6.30;;;3.15;;
69417;SDS011;56610;48.872;2.400;2023-02-26T06:26:24;6.45;;;2.38;;
69417;SDS011;56610;48.872;2.400;2023-02-26T06:28:49;9.23;;;2.95;;
69417;SDS011;56610;48.872;2.400;2023-02-26T06:31:15;5.82;;;2.78;;
69417;SDS011;56610;48.872;2.400;2023-02-26T06:33:41;7.32;;;2.67;;
69417;SDS011;56610;48.872;2.400;2023-02-26T06:36:06;7.60;;;2.75;;
69417;SDS011;56610;48.872;2.400;2023-02-26T06:38:32;5.18;;;2.40;;
69417;SDS011;56610;48.872;2.400;2023-02-26T06:40:58;5.75;;;2.60;;
69417;SDS011;56610;48.872;2.400;2023-02-26T06:43:23;6.57;;;2.53;;
69417;SDS011;56610;48.872;2.400;2023-02-26T06:45:49;8.07;;;2.72;;
69417;SDS011;56610;48.872;2.400;2023-02-26T06:48:15;7.45;;;2.63;;
69417;SDS011;56610;48.872;2.400;2023-02-26T06:50:41;6.88;;;2.72;;
69417;SDS011;56610;48.872;2.400;2023-02-26T06:53:06;6.93;;;2.85;;
69417;SDS011;56610;48.872;2.400;2023-02-26T06:55:32;5.38;;;2.60;;
69417;SDS011;56610;48.872;2.400;2023-02-26T06:57:58;7.47;;;2.90;;
69417;SDS011;56610;48.872;2.400;2023-02-26T07:00:24;7.72;;;2.95;;
69417;SDS011;56610;48.872;2.400;2023-02-26T07:02:50;7.57;;;2.70;;
69417;SDS011;56610;48.872;2.400;2023-02-26T07:05:17;6.05;;;3.08;;
69417;SDS011;56610;48.872;2.400;2023-02-26T07:07:43;8.90;;;3.72;;
69417;SDS011;56610;48.872;2.400;2023-02-26T07:10:09;6.65;;;3.42;;
69417;SDS011;56610;48.872;2.400;2023-02-26T07:12:36;11.18;;;3.10;;
69417;SDS011;56610;48.872;2.400;2023-02-26T07:15:03;6.30;;;2.88;;
69417;SDS011;56610;48.872;2.400;2023-02-26T07:17:30;8.93;;;3.00;;
69417;SDS011;56610;48.872;2.400;2023-02-26T07:19:56;6.80;;;2.90;;
69417;SDS011;56610;48.872;2.400;2023-02-26T07:22:22;8.57;;;2.97;;
69417;SDS011;56610;48.872;2.400;2023-02-26T07:24:47;6.07;;;3.17;;
69417;SDS011;56610;48.872;2.400;2023-02-26T07:27:17;8.32;;;2.95;;
69417;SDS011;56610;48.872;2.400;2023-02-26T07:29:42;8.93;;;3.25;;
69417;SDS011;56610;48.872;2.400;2023-02-26T07:32:08;7.00;;;2.85;;
69417;SDS011;56610;48.872;2.400;2023-02-26T07:34:34;8.27;;;3.10;;
69417;SDS011;56610;48.872;2.400;2023-02-26T07:36:59;4.80;;;2.85;;
69417;SDS011;56610;48.872;2.400;2023-02-26T07:39:25;6.05;;;2.80;;
69417;SDS011;56610;48.872;2.400;2023-02-26T07:41:51;5.22;;;3.00;;
69417;SDS011;56610;48.872;2.400;2023-02-26T07:44:17;6.40;;;2.95;;
69417;SDS011;56610;48.872;2.400;2023-02-26T07:46:43;7.50;;;2.90;;
69417;SDS011;56610;48.872;2.400;2023-02-26T07:49:09;8.30;;;3.03;;
69417;SDS011;56610;48.872;2.400;2023-02-26T07:51:34;10.23;;;3.63;;
69417;SDS011;56610;48.872;2.400;2023-02-26T07:54:00;7.45;;;3.20;;
69417;SDS011;56610;48.872;2.400;2023-02-26T07:56:27;6.57;;;2.90;;
69417;SDS011;56610;48.872;2.400;2023-02-26T07:58:53;10.07;;;3.50;;
69417;SDS011;56610;48.872;2.400;2023-02-26T08:01:18;7.70;;;3.05;;
69417;SDS011;56610;48.872;2.400;2023-02-26T08:03:44;7.68;;;3.40;;
69417;SDS011;56610;48.872;2.400;2023-02-26T08:06:10;7.75;;;3.25;;
69417;SDS011;56610;48.872;2.400;2023-02-26T08:08:35;9.30;;;3.05;;
69417;SDS011;56610;48.872;2.400;2023-02-26T08:11:01;6.07;;;2.75;;
69417;SDS011;56610;48.872;2.400;2023-02-26T08:13:27;8.40;;;3.05;;
69417;SDS011;56610;48.872;2.400;2023-02-26T08:15:52;6.38;;;3.05;;
69417;SDS011;56610;48.872;2.400;2023-02-26T08:18:18;6.78;;;3.17;;
69417;SDS011;56610;48.872;2.400;2023-02-26T08:20:44;9.70;;;3.40;;
69417;SDS011;56610;48.872;2.400;2023-02-26T08:23:10;8.40;;;3.10;;
69417;SDS011;56610;48.872;2.400;2023-02-26T08:25:36;6.57;;;3.00;;
69417;SDS011;56610;48.872;2.400;2023-02-26T08:28:02;7.40;;;3.20;;
69417;SDS011;56610;48.872;2.400;2023-02-26T08:30:28;6.45;;;3.08;;
69417;SDS011;56610;48.872;2.400;2023-02-26T08:32:54;6.65;;;2.85;;
69417;SDS011;56610;48.872;2.400;2023-02-26T08:35:22;6.47;;;3.10;;
69417;SDS011;56610;48.872;2.400;2023-02-26T08:37:49;7.72;;;3.15;;
69417;SDS011;56610;48.872;2.400;2023-02-26T08:40:14;7.18;;;2.88;;
69417;SDS011;56610;48.872;2.400;2023-02-26T08:42:40;8.45;;;3.08;;
69417;SDS011;56610;48.872;2.400;2023-02-26T08:45:06;8.10;;;3.20;;
69417;SDS011;56610;48.872;2.400;2023-02-26T08:47:32;6.72;;;2.85;;
69417;SDS011;56610;48.872;2.400;2023-02-26T08:49:58;4.82;;;2.53;;
69417;SDS011;56610;48.872;2.400;2023-02-26T08:52:23;7.88;;;3.05;;
69417;SDS011;56610;48.872;2.400;2023-02-26T08:54:49;6.78;;;2.95;;
69417;SDS011;56610;48.872;2.400;2023-02-26T08:57:16;6.50;;;2.90;;
69417;SDS011;56610;48.872;2.400;2023-02-26T08:59:41;4.18;;;1.95;;
69417;SDS011;56610;48.872;2.400;2023-02-26T09:02:09;8.98;;;2.67;;
69417;SDS011;56610;48.872;2.400;2023-02-26T09:04:35;6.57;;;2.33;;
69417;SDS011;56610;48.872;2.400;2023-02-26T09:07:00;6.82;;;2.45;;
69417;SDS011;56610;48.872;2.400;2023-02-26T09:09:26;5.43;;;2.35;;
69417;SDS011;56610;48.872;2.400;2023-02-26T09:11:55;4.68;;;2.20;;
69417;SDS011;56610;48.872;2.400;2023-02-26T09:14:20;5.28;;;2.58;;
69417;SDS011;56610;48.872;2.400;2023-02-26T09:16:47;3.95;;;2.10;;
69417;SDS011;56610;48.872;2.400;2023-02-26T09:19:12;3.25;;;2.08;;
69417;SDS011;56610;48.872;2.400;2023-02-26T09:21:38;3.72;;;2.00;;
69417;SDS011;56610;48.872;2.400;2023-02-26T09:24:03;6.57;;;2.30;;
69417;SDS011;56610;48.872;2.400;2023-02-26T09:26:29;5.95;;;2.05;;
69417;SDS011;56610;48.872;2.400;2023-02-26T09:28:58;6.32;;;2.40;;
69417;SDS011;56610;48.872;2.400;2023-02-26T09:31:23;5.82;;;2.05;;
69417;SDS011;56610;48.872;2.400;2023-02-26T09:33:49;6.43;;;2.42;;
69417;SDS011;56610;48.872;2.400;2023-02-26T09:36:15;3.60;;;1.90;;
69417;SDS011;56610;48.872;2.400;2023-02-26T09:38:40;4.50;;;2.22;;
69417;SDS011;56610;48.872;2.400;2023-02-26T09:41:09;2.85;;;1.90;;
69417;SDS011;56610;48.872;2.400;2023-02-26T09:46:11;4.90;;;1.88;;
69417;SDS011;56610;48.872;2.400;2023-02-26T09:48:48;4.00;;;1.58;;
69417;SDS011;56610;48.872;2.400;2023-02-26T09:51:19;5.93;;;1.70;;
69417;SDS011;56610;48.872;2.400;2023-02-26T09:53:46;3.10;;;1.73;;
69417;SDS011;56610;48.872;2.400;2023-02-26T09:56:18;4.38;;;1.60;;
69417;SDS011;56610;48.872;2.400;2023-02-26T09:58:48;5.50;;;1.60;;
69417;SDS011;56610;48.872;2.400;2023-02-26T10:04:31;4.18;;;1.30;;
69417;SDS011;56610;48.872;2.400;2023-02-26T10:09:43;2.53;;;1.25;;
69417;SDS011;56610;48.872;2.400;2023-02-26T10:12:17;5.20;;;1.80;;
69417;SDS011;56610;48.872;2.400;2023-02-26T10:14:59;3.63;;;1.65;;
69417;SDS011;56610;48.872;2.400;2023-02-26T10:34:24;3.55;;;1.35;;
69417;SDS011;56610;48.872;2.400;2023-02-26T10:40:23;4.03;;;1.20;;
69417;SDS011;56610;48.872;2.400;2023-02-26T10:51:49;4.90;;;1.20;;
69417;SDS011;56610;48.872;2.400;2023-02-26T10:56:48;1.58;;;1.05;;
69417;SDS011;56610;48.872;2.400;2023-02-26T10:59:13;2.63;;;0.95;;
69417;SDS011;56610;48.872;2.400;2023-02-26T11:01:39;4.15;;;1.00;;
69417;SDS011;56610;48.872;2.400;2023-02-26T11:04:06;3.97;;;1.10;;
69417;SDS011;56610;48.872;2.400;2023-02-26T11:06:40;1.63;;;0.90;;
69417;SDS011;56610;48.872;2.400;2023-02-26T11:09:51;1.67;;;0.90;;
69417;SDS011;56610;48.872;2.400;2023-02-26T11:14:39;2.22;;;0.90;;
69417;SDS011;56610;48.872;2.400;2023-02-26T11:17:26;2.72;;;0.93;;
69417;SDS011;56610;48.872;2.400;2023-02-26T11:22:54;2.47;;;0.90;;
69417;SDS011;56610;48.872;2.400;2023-02-26T11:25:23;1.98;;;1.08;;
69417;SDS011;56610;48.872;2.400;2023-02-26T11:27:57;2.88;;;0.90;;
69417;SDS011;56610;48.872;2.400;2023-02-26T11:30:30;4.15;;;1.00;;
69417;SDS011;56610;48.872;2.400;2023-02-26T11:33:04;2.88;;;1.00;;
69417;SDS011;56610;48.872;2.400;2023-02-26T11:35:38;2.00;;;0.80;;
69417;SDS011;56610;48.872;2.400;2023-02-26T11:38:04;2.35;;;1.25;;
69417;SDS011;56610;48.872;2.400;2023-02-26T11:40:34;4.40;;;0.70;;
69417;SDS011;56610;48.872;2.400;2023-02-26T11:43:18;2.92;;;1.10;;
69417;SDS011;56610;48.872;2.400;2023-02-26T11:45:57;4.28;;;1.08;;
69417;SDS011;56610;48.872;2.400;2023-02-26T11:48:25;4.13;;;0.90;;
69417;SDS011;56610;48.872;2.400;2023-02-26T11:50:59;2.00;;;1.15;;
69417;SDS011;56610;48.872;2.400;2023-02-26T11:56:01;2.03;;;0.93;;
69417;SDS011;56610;48.872;2.400;2023-02-26T11:58:34;3.13;;;1.30;;
69417;SDS011;56610;48.872;2.400;2023-02-26T12:01:04;2.00;;;1.00;;
69417;SDS011;56610;48.872;2.400;2023-02-26T12:03:35;4.45;;;1.17;;
69417;SDS011;56610;48.872;2.400;2023-02-26T12:06:05;1.67;;;0.90;;
69417;SDS011;56610;48.872;2.400;2023-02-26T12:08:39;1.83;;;0.93;;
69417;SDS011;56610;48.872;2.400;2023-02-26T12:22:05;1.33;;;0.90;;
69417;SDS011;56610;48.872;2.400;2023-02-26T12:42:00;2.20;;;1.25;;
69417;SDS011;56610;48.872;2.400;2023-02-26T12:53:01;2.60;;;0.90;;
69417;SDS011;56610;48.872;2.400;2023-02-26T12:55:54;1.73;;;0.77;;
69417;SDS011;56610;48.872;2.400;2023-02-26T12:58:57;1.50;;;0.90;;
69417;SDS011;56610;48.872;2.400;2023-02-26T13:12:41;1.85;;;0.90;;
69417;SDS011;56610;48.872;2.400;2023-02-26T13:15:22;1.67;;;1.00;;
69417;SDS011;56610;48.872;2.400;2023-02-26T13:20:36;2.92;;;0.93;;
69417;SDS011;56610;48.872;2.400;2023-02-26T13:23:09;1.27;;;0.88;;
69417;SDS011;56610;48.872;2.400;2023-02-26T13:25:41;2.05;;;1.08;;
69417;SDS011;56610;48.872;2.400;2023-02-26T13:31:17;1.80;;;0.90;;
69417;SDS011;56610;48.872;2.400;2023-02-26T13:34:01;1.95;;;1.00;;
69417;SDS011;56610;48.872;2.400;2023-02-26T13:36:31;1.77;;;0.90;;
69417;SDS011;56610;48.872;2.400;2023-02-26T13:41:56;1.40;;;0.85;;
69417;SDS011;56610;48.872;2.400;2023-02-26T13:44:34;1.80;;;0.98;;
69417;SDS011;56610;48.872;2.400;2023-02-26T13:50:15;3.60;;;1.20;;
69417;SDS011;56610;48.872;2.400;2023-02-26T13:53:03;1.92;;;1.00;;
69417;SDS011;56610;48.872;2.400;2023-02-26T13:55:54;2.15;;;1.23;;
69417;SDS011;56610;48.872;2.400;2023-02-26T13:58:37;2.75;;;1.27;;
69417;SDS011;56610;48.872;2.400;2023-02-26T14:01:14;1.60;;;0.80;;
69417;SDS011;56610;48.872;2.400;2023-02-26T14:03:51;2.25;;;1.08;;
69417;SDS011;56610;48.872;2.400;2023-02-26T14:06:43;2.08;;;1.05;;
69417;SDS011;56610;48.872;2.400;2023-02-26T14:19:42;2.15;;;1.00;;
69417;SDS011;56610;48.872;2.400;2023-02-26T14:24:44;1.35;;;0.88;;
69417;SDS011;56610;48.872;2.400;2023-02-26T14:27:22;1.73;;;0.80;;
69417;SDS011;56610;48.872;2.400;2023-02-26T14:30:02;4.35;;;0.90;;
69417;SDS011;56610;48.872;2.400;2023-02-26T14:32:47;2.05;;;0.68;;
69417;SDS011;56610;48.872;2.400;2023-02-26T14:37:58;2.35;;;0.75;;
69417;SDS011;56610;48.872;2.400;2023-02-26T14:40:36;3.47;;;0.90;;
69417;SDS011;56610;48.872;2.400;2023-02-26T14:43:08;1.33;;;0.90;;
69417;SDS011;56610;48.872;2.400;2023-02-26T14:45:43;1.58;;;0.80;;
69417;SDS011;56610;48.872;2.400;2023-02-26T14:48:14;1.83;;;0.90;;
69417;SDS011;56610;48.872;2.400;2023-02-26T14:56:02;1.90;;;0.80;;
69417;SDS011;56610;48.872;2.400;2023-02-26T15:01:44;1.40;;;0.90;;
69417;SDS011;56610;48.872;2.400;2023-02-26T15:13:00;1.33;;;0.90;;
69417;SDS011;56610;48.872;2.400;2023-02-26T15:18:39;0.77;;;0.57;;
69417;SDS011;56610;48.872;2.400;2023-02-26T15:23:58;3.35;;;0.90;;
69417;SDS011;56610;48.872;2.400;2023-02-26T15:26:31;1.48;;;0.90;;
69417;SDS011;56610;48.872;2.400;2023-02-26T15:28:59;3.13;;;0.90;;
69417;SDS011;56610;48.872;2.400;2023-02-26T15:31:40;1.83;;;1.00;;
69417;SDS011;56610;48.872;2.400;2023-02-26T15:34:10;1.15;;;0.70;;
69417;SDS011;56610;48.872;2.400;2023-02-26T15:36:42;1.58;;;0.85;;
69417;SDS011;56610;48.872;2.400;2023-02-26T15:39:09;1.77;;;1.00;;
69417;SDS011;56610;48.872;2.400;2023-02-26T15:41:40;1.35;;;0.80;;
69417;SDS011;56610;48.872;2.400;2023-02-26T15:44:07;2.17;;;0.90;;
69417;SDS011;56610;48.872;2.400;2023-02-26T15:46:39;2.58;;;1.02;;
69417;SDS011;56610;48.872;2.400;2023-02-26T15:49:21;1.23;;;0.80;;
69417;SDS011;56610;48.872;2.400;2023-02-26T15:51:53;2.13;;;0.70;;
69417;SDS011;56610;48.872;2.400;2023-02-26T15:54:21;1.27;;;0.80;;
69417;SDS011;56610;48.872;2.400;2023-02-26T15:56:49;2.72;;;1.10;;
69417;SDS011;56610;48.872;2.400;2023-02-26T15:59:16;2.67;;;0.90;;
69417;SDS011;56610;48.872;2.400;2023-02-26T16:01:44;2.03;;;1.00;;
69417;SDS011;56610;48.872;2.400;2023-02-26T16:06:41;1.83;;;0.85;;
69417;SDS011;56610;48.872;2.400;2023-02-26T16:09:19;3.28;;;1.15;;
69417;SDS011;56610;48.872;2.400;2023-02-26T16:11:50;1.42;;;0.90;;
69417;SDS011;56610;48.872;2.400;2023-02-26T16:14:21;1.63;;;0.98;;
69417;SDS011;56610;48.872;2.400;2023-02-26T16:16:55;1.50;;;0.90;;
69417;SDS011;56610;48.872;2.400;2023-02-26T16:19:31;1.27;;;0.90;;
69417;SDS011;56610;48.872;2.400;2023-02-26T16:22:03;1.40;;;1.10;;
69417;SDS011;56610;48.872;2.400;2023-02-26T16:24:52;1.38;;;0.90;;
69417;SDS011;56610;48.872;2.400;2023-02-26T16:27:27;1.02;;;0.90;;
69417;SDS011;56610;48.872;2.400;2023-02-26T16:29:55;1.30;;;0.80;;
69417;SDS011;56610;48.872;2.400;2023-02-26T16:32:24;1.02;;;0.80;;
69417;SDS011;56610;48.872;2.400;2023-02-26T16:34:53;1.58;;;1.00;;
69417;SDS011;56610;48.872;2.400;2023-02-26T16:47:59;3.42;;;1.00;;
69417;SDS011;56610;48.872;2.400;2023-02-26T16:50:28;1.67;;;1.55;;
69417;SDS011;56610;48.872;2.400;2023-02-26T16:55:48;2.40;;;1.00;;
69417;SDS011;56610;48.872;2.400;2023-02-26T16:58:19;1.55;;;0.98;;
69417;SDS011;56610;48.872;2.400;2023-02-26T17:00:49;1.50;;;1.05;;
69417;SDS011;56610;48.872;2.400;2023-02-26T17:03:20;1.30;;;0.80;;
69417;SDS011;56610;48.872;2.400;2023-02-26T17:08:45;1.00;;;0.90;;
69417;SDS011;56610;48.872;2.400;2023-02-26T17:11:21;2.13;;;1.00;;
69417;SDS011;56610;48.872;2.400;2023-02-26T17:16:48;1.88;;;1.10;;
69417;SDS011;56610;48.872;2.400;2023-02-26T17:19:14;1.48;;;0.93;;
69417;SDS011;56610;48.872;2.400;2023-02-26T17:22:02;1.23;;;1.00;;
69417;SDS011;56610;48.872;2.400;2023-02-26T17:24:37;2.72;;;1.55;;
69417;SDS011;56610;48.872;2.400;2023-02-26T17:27:05;2.10;;;1.27;;
69417;SDS011;56610;48.872;2.400;2023-02-26T17:29:34;2.40;;;1.10;;
69417;SDS011;56610;48.872;2.400;2023-02-26T17:32:06;3.50;;;1.20;;
69417;SDS011;56610;48.872;2.400;2023-02-26T17:34:46;2.50;;;1.17;;
69417;SDS011;56610;48.872;2.400;2023-02-26T17:37:13;3.55;;;1.17;;
69417;SDS011;56610;48.872;2.400;2023-02-26T17:39:39;2.90;;;1.17;;
69417;SDS011;56610;48.872;2.400;2023-02-26T17:42:10;2.75;;;1.30;;
69417;SDS011;56610;48.872;2.400;2023-02-26T17:44:40;3.42;;;1.30;;
69417;SDS011;56610;48.872;2.400;2023-02-26T17:47:08;3.42;;;1.10;;
69417;SDS011;56610;48.872;2.400;2023-02-26T17:49:40;2.55;;;1.10;;
69417;SDS011;56610;48.872;2.400;2023-02-26T17:52:06;1.90;;;1.05;;
69417;SDS011;56610;48.872;2.400;2023-02-26T17:54:32;1.85;;;1.17;;
69417;SDS011;56610;48.872;2.400;2023-02-26T17:56:57;1.98;;;1.00;;
69417;SDS011;56610;48.872;2.400;2023-02-26T17:59:25;2.08;;;1.00;;
69417;SDS011;56610;48.872;2.400;2023-02-26T18:01:52;2.55;;;1.00;;
69417;SDS011;56610;48.872;2.400;2023-02-26T18:04:18;1.58;;;1.10;;
69417;SDS011;56610;48.872;2.400;2023-02-26T18:06:44;2.15;;;1.20;;
69417;SDS011;56610;48.872;2.400;2023-02-26T18:09:10;2.50;;;1.00;;
69417;SDS011;56610;48.872;2.400;2023-02-26T18:11:36;2.00;;;1.00;;
69417;SDS011;56610;48.872;2.400;2023-02-26T18:14:02;1.50;;;1.13;;
69417;SDS011;56610;48.872;2.400;2023-02-26T18:16:31;1.23;;;1.05;;
69417;SDS011;56610;48.872;2.400;2023-02-26T18:18:59;2.42;;;1.02;;
69417;SDS011;56610;48.872;2.400;2023-02-26T18:21:25;1.70;;;1.23;;
69417;SDS011;56610;48.872;2.400;2023-02-26T18:23:51;2.22;;;1.23;;
69417;SDS011;56610;48.872;2.400;2023-02-26T18:26:20;2.70;;;1.20;;
69417;SDS011;56610;48.872;2.400;2023-02-26T18:28:48;1.83;;;1.13;;
69417;SDS011;56610;48.872;2.400;2023-02-26T18:31:15;2.38;;;1.40;;
69417;SDS011;56610;48.872;2.400;2023-02-26T18:33:41;3.42;;;1.27;;
69417;SDS011;56610;48.872;2.400;2023-02-26T18:36:15;2.00;;;1.25;;
69417;SDS011;56610;48.872;2.400;2023-02-26T18:38:53;2.72;;;1.42;;
69417;SDS011;56610;48.872;2.400;2023-02-26T18:41:22;1.70;;;1.10;;